createdAt,value
2019-02-25T00:00:34.730Z,11.93
2019-02-25T00:01:31.933Z,11.38
2019-02-25T00:02:11.904Z,11.50
2019-02-25T00:02:45.488Z,11.50
2019-02-25T00:03:18.962Z,12.58
2019-02-25T00:03:53.094Z,10.85
2019-02-25T00:04:33.801Z,11.48
2019-02-25T00:05:07.609Z,12.05
2019-02-25T00:05:41.121Z,11.22
2019-02-25T00:06:14.712Z,11.00
2019-02-25T00:06:48.239Z,11.12
2019-02-25T00:07:21.714Z,11.90
2019-02-25T00:07:55.222Z,11.30
2019-02-25T00:08:28.713Z,11.75
2019-02-25T00:09:02.256Z,11.10
2019-02-25T00:09:35.751Z,11.10
2019-02-25T00:10:09.442Z,11.33
2019-02-25T00:10:42.939Z,11.33
2019-02-25T00:11:16.448Z,11.48
2019-02-25T00:11:49.963Z,11.00
2019-02-25T00:12:23.587Z,12.10
2019-02-25T00:12:57.333Z,11.88
2019-02-25T00:13:30.851Z,10.85
2019-02-25T00:14:04.459Z,11.90
2019-02-25T00:14:38.019Z,11.05
2019-02-25T00:15:11.525Z,11.15
2019-02-25T00:15:45.049Z,10.85
2019-02-25T00:16:18.536Z,12.00
2019-02-25T00:16:52.038Z,10.80
2019-02-25T00:17:25.554Z,11.05
2019-02-25T00:17:59.649Z,11.57
2019-02-25T00:18:33.136Z,11.25
2019-02-25T00:19:06.628Z,11.95
2019-02-25T00:19:40.132Z,11.50
2019-02-25T00:20:14.036Z,10.98
2019-02-25T00:20:47.523Z,10.68
2019-02-25T00:21:21.005Z,11.78
2019-02-25T00:21:54.482Z,11.53
2019-02-25T00:22:27.976Z,11.50
2019-02-25T00:23:01.555Z,11.28
2019-02-25T00:23:35.120Z,11.97
2019-02-25T00:24:08.809Z,11.18
2019-02-25T00:24:42.336Z,11.48
2019-02-25T00:25:16.825Z,10.65
2019-02-25T00:25:50.304Z,10.15
2019-02-25T00:26:23.893Z,11.48
2019-02-25T00:26:57.292Z,10.93
2019-02-25T00:27:30.713Z,11.10
2019-02-25T00:28:04.224Z,10.65
2019-02-25T00:28:37.729Z,11.90
2019-02-25T00:29:11.215Z,11.60
2019-02-25T00:29:44.704Z,11.10
2019-02-25T00:30:18.209Z,11.35
2019-02-25T00:30:51.772Z,10.98
2019-02-25T00:31:25.280Z,10.98
2019-02-25T00:31:58.768Z,11.20
2019-02-25T00:32:32.330Z,10.15
2019-02-25T00:33:05.823Z,10.30
2019-02-25T00:33:39.313Z,11.22
2019-02-25T00:34:12.794Z,11.57
2019-02-25T00:34:46.293Z,11.57
2019-02-25T00:35:19.800Z,11.63
2019-02-25T00:35:53.332Z,11.80
2019-02-25T00:36:26.825Z,11.40
2019-02-25T00:37:00.386Z,11.70
2019-02-25T00:37:33.923Z,10.58
2019-02-25T00:38:07.442Z,11.15
2019-02-25T00:38:40.875Z,12.23
2019-02-25T00:39:14.317Z,11.38
2019-02-25T00:39:47.802Z,11.78
2019-02-25T00:40:21.331Z,11.80
2019-02-25T00:40:54.893Z,10.90
2019-02-25T00:41:28.405Z,11.20
2019-02-25T00:42:01.912Z,11.65
2019-02-25T00:42:35.528Z,11.25
2019-02-25T00:43:09.074Z,10.80
2019-02-25T00:43:42.737Z,11.10
2019-02-25T00:44:16.262Z,11.22
2019-02-25T00:44:49.785Z,11.97
2019-02-25T00:45:23.584Z,11.43
2019-02-25T00:45:57.077Z,12.03
2019-02-25T00:46:30.578Z,10.25
2019-02-25T00:47:04.266Z,10.85
2019-02-25T00:47:37.805Z,11.05
2019-02-25T00:48:11.297Z,11.57
2019-02-25T00:48:44.763Z,11.48
2019-02-25T00:49:18.271Z,11.05
2019-02-25T00:49:51.753Z,10.90
2019-02-25T00:50:25.261Z,11.60
2019-02-25T00:50:58.733Z,11.50
2019-02-25T00:51:32.232Z,10.38
2019-02-25T00:52:05.743Z,11.43
2019-02-25T00:52:39.221Z,10.35
2019-02-25T00:53:12.837Z,13.03
2019-02-25T00:53:46.382Z,10.72
2019-02-25T00:54:19.873Z,12.25
2019-02-25T00:54:53.377Z,11.88
2019-02-25T00:55:26.896Z,11.08
2019-02-25T00:56:00.349Z,10.90
2019-02-25T00:56:33.835Z,10.93
2019-02-25T00:57:08.976Z,10.40
2019-02-25T00:57:42.510Z,11.12
2019-02-25T00:58:15.902Z,11.05
2019-02-25T00:58:49.400Z,10.95
2019-02-25T00:59:22.881Z,11.00
2019-02-25T00:59:56.355Z,10.70
2019-02-25T01:00:29.877Z,10.55
2019-02-25T01:01:03.356Z,11.20
2019-02-25T01:01:36.849Z,10.90
2019-02-25T01:02:10.323Z,11.63
2019-02-25T01:02:43.818Z,11.93
2019-02-25T01:03:17.313Z,12.65
2019-02-25T01:03:50.786Z,13.20
2019-02-25T01:04:24.275Z,12.75
2019-02-25T01:04:57.772Z,11.57
2019-02-25T01:05:31.296Z,12.15
2019-02-25T01:06:04.798Z,11.33
2019-02-25T01:06:38.302Z,9.80
2019-02-25T01:07:12.023Z,11.05
2019-02-25T01:07:45.996Z,10.85
2019-02-25T01:08:19.489Z,11.18
2019-02-25T01:08:52.972Z,11.75
2019-02-25T01:09:26.489Z,10.63
2019-02-25T01:09:59.960Z,11.03
2019-02-25T01:10:33.487Z,11.05
2019-02-25T01:11:07.077Z,10.95
2019-02-25T01:11:40.607Z,11.20
2019-02-25T01:12:14.757Z,10.72
2019-02-25T01:12:48.717Z,11.63
2019-02-25T01:13:22.532Z,12.18
2019-02-25T01:13:56.591Z,10.88
2019-02-25T01:14:30.150Z,12.53
2019-02-25T01:15:52.188Z,10.93
2019-02-25T01:16:26.137Z,11.03
2019-02-25T01:17:01.935Z,11.88
2019-02-25T01:17:35.600Z,10.15
2019-02-25T01:18:09.173Z,10.58
2019-02-25T01:18:42.761Z,11.05
2019-02-25T01:19:16.225Z,10.80
2019-02-25T01:19:49.717Z,10.70
2019-02-25T01:20:23.197Z,10.53
2019-02-25T01:20:56.704Z,10.35
2019-02-25T01:21:30.204Z,11.60
2019-02-25T01:22:03.694Z,10.15
2019-02-25T01:22:37.215Z,10.78
2019-02-25T01:23:10.708Z,10.23
2019-02-25T01:23:44.165Z,11.15
2019-02-25T01:24:17.662Z,11.35
2019-02-25T01:24:51.149Z,11.40
2019-02-25T01:25:24.658Z,12.20
2019-02-25T01:25:58.173Z,10.88
2019-02-25T01:26:31.654Z,11.05
2019-02-25T01:27:05.156Z,10.68
2019-02-25T01:27:38.647Z,10.63
2019-02-25T01:28:12.121Z,11.35
2019-02-25T01:28:45.623Z,11.50
2019-02-25T01:29:19.137Z,10.78
2019-02-25T01:29:52.643Z,10.55
2019-02-25T01:30:26.112Z,11.38
2019-02-25T01:30:59.745Z,11.53
2019-02-25T01:31:33.175Z,11.97
2019-02-25T01:32:06.647Z,10.63
2019-02-25T01:32:40.143Z,10.93
2019-02-25T01:33:13.918Z,11.83
2019-02-25T01:33:47.430Z,10.53
2019-02-25T01:34:20.838Z,11.40
2019-02-25T01:34:54.345Z,10.85
2019-02-25T01:35:27.820Z,12.33
2019-02-25T01:36:01.305Z,11.20
2019-02-25T01:36:34.830Z,10.78
2019-02-25T01:37:08.377Z,11.40
2019-02-25T01:37:41.923Z,11.40
2019-02-25T01:38:15.789Z,10.28
2019-02-25T01:38:49.474Z,11.03
2019-02-25T01:39:22.941Z,11.60
2019-02-25T01:39:56.449Z,10.30
2019-02-25T01:40:29.968Z,10.00
2019-02-25T01:41:03.479Z,11.18
2019-02-25T01:41:36.979Z,10.90
2019-02-25T01:42:10.456Z,11.48
2019-02-25T01:42:43.965Z,11.55
2019-02-25T01:43:17.497Z,11.10
2019-02-25T01:43:51.058Z,10.95
2019-02-25T01:44:24.542Z,11.35
2019-02-25T01:44:58.039Z,10.85
2019-02-25T01:45:32.294Z,11.45
2019-02-25T01:46:06.571Z,11.78
2019-02-25T01:46:40.155Z,11.25
2019-02-25T01:47:13.633Z,10.98
2019-02-25T01:47:47.140Z,11.28
2019-02-25T01:48:20.829Z,12.00
2019-02-25T01:48:54.798Z,11.28
2019-02-25T01:49:28.679Z,11.53
2019-02-25T01:50:02.633Z,10.53
2019-02-25T01:50:36.833Z,11.10
2019-02-25T01:51:10.786Z,11.20
2019-02-25T01:51:44.375Z,10.95
2019-02-25T01:52:17.854Z,11.15
2019-02-25T01:53:10.462Z,11.18
2019-02-25T01:53:44.420Z,11.10
2019-02-25T01:54:18.033Z,10.60
2019-02-25T01:54:51.600Z,11.93
2019-02-25T01:55:25.400Z,10.70
2019-02-25T01:55:59.107Z,10.75
2019-02-25T01:56:32.977Z,10.78
2019-02-25T01:57:06.724Z,11.63
2019-02-25T01:57:40.329Z,11.90
2019-02-25T01:58:14.284Z,11.22
2019-02-25T01:58:48.061Z,10.90
2019-02-25T01:59:21.755Z,10.90
2019-02-25T02:00:14.458Z,11.03
2019-02-25T02:00:48.149Z,10.93
2019-02-25T02:01:22.738Z,11.30
2019-02-25T02:01:56.388Z,9.73
2019-02-25T02:02:29.806Z,11.95
2019-02-25T02:03:03.324Z,11.30
2019-02-25T02:03:36.853Z,12.45
2019-02-25T02:04:10.543Z,12.00
2019-02-25T02:04:44.193Z,11.30
2019-02-25T02:05:17.854Z,11.33
2019-02-25T02:05:51.477Z,11.08
2019-02-25T02:06:25.435Z,11.40
2019-02-25T02:06:58.921Z,12.28
2019-02-25T02:07:32.408Z,12.23
2019-02-25T02:08:06.001Z,11.78
2019-02-25T02:08:39.818Z,12.00
2019-02-25T02:09:14.013Z,11.25
2019-02-25T02:09:48.098Z,11.57
2019-02-25T02:10:21.804Z,11.38
2019-02-25T02:10:55.294Z,11.35
2019-02-25T02:11:29.935Z,11.05
2019-02-25T02:12:03.601Z,11.38
2019-02-25T02:12:37.361Z,11.48
2019-02-25T02:13:14.133Z,11.15
2019-02-25T02:13:46.893Z,11.70
2019-02-25T02:14:21.047Z,11.15
2019-02-25T02:14:54.811Z,11.65
2019-02-25T02:15:28.875Z,10.23
2019-02-25T02:16:21.502Z,11.33
2019-02-25T02:16:56.056Z,11.80
2019-02-25T02:17:30.390Z,11.35
2019-02-25T02:18:04.167Z,11.50
2019-02-25T02:18:38.141Z,11.45
2019-02-25T02:19:12.267Z,11.48
2019-02-25T02:19:46.166Z,11.10
2019-02-25T02:20:19.766Z,10.82
2019-02-25T02:20:53.624Z,11.05
2019-02-25T02:21:27.502Z,10.85
2019-02-25T02:22:00.981Z,10.95
2019-02-25T02:22:34.460Z,11.60
2019-02-25T02:23:08.009Z,10.95
2019-02-25T02:23:41.510Z,11.15
2019-02-25T02:24:15.011Z,11.70
2019-02-25T02:24:48.498Z,11.35
2019-02-25T02:25:21.997Z,10.50
2019-02-25T02:25:55.471Z,11.55
2019-02-25T02:26:28.979Z,11.10
2019-02-25T02:27:02.478Z,10.60
2019-02-25T02:27:55.161Z,11.45
2019-02-25T02:28:28.704Z,11.12
2019-02-25T02:29:21.308Z,11.90
2019-02-25T02:29:54.750Z,11.93
2019-02-25T02:30:28.238Z,11.35
2019-02-25T02:31:04.542Z,13.10
2019-02-25T02:31:38.120Z,10.98
2019-02-25T02:32:11.825Z,10.25
2019-02-25T02:32:45.337Z,10.20
2019-02-25T02:33:18.821Z,11.35
2019-02-25T02:33:52.309Z,12.47
2019-02-25T02:34:25.788Z,11.30
2019-02-25T02:34:59.313Z,12.47
2019-02-25T02:35:32.849Z,11.93
2019-02-25T02:36:07.548Z,11.28
2019-02-25T02:36:41.073Z,10.43
2019-02-25T02:37:14.577Z,11.83
2019-02-25T02:37:48.131Z,12.68
2019-02-25T02:38:21.660Z,11.88
2019-02-25T02:38:55.108Z,12.73
2019-02-25T02:39:28.678Z,11.48
2019-02-25T02:40:02.257Z,12.60
2019-02-25T02:40:35.772Z,12.00
2019-02-25T02:41:09.237Z,12.43
2019-02-25T02:42:00.940Z,11.78
2019-02-25T02:42:34.474Z,10.85
2019-02-25T02:43:08.045Z,12.35
2019-02-25T02:43:41.551Z,12.05
2019-02-25T02:44:15.048Z,12.00
2019-02-25T02:44:49.948Z,11.35
2019-02-25T02:45:37.449Z,12.00
2019-02-25T02:46:13.316Z,10.75
2019-02-25T02:46:56.648Z,10.40
2019-02-25T02:47:31.837Z,11.88
2019-02-25T02:48:07.099Z,10.72
2019-02-25T02:48:42.923Z,11.85
2019-02-25T02:49:16.489Z,12.25
2019-02-25T02:49:49.969Z,11.48
2019-02-25T02:50:24.084Z,12.68
2019-02-25T02:51:16.686Z,11.53
2019-02-25T02:51:50.597Z,12.25
2019-02-25T02:52:24.008Z,11.57
2019-02-25T02:52:57.457Z,12.23
2019-02-25T02:53:30.904Z,11.25
2019-02-25T02:54:04.851Z,12.28
2019-02-25T02:54:38.326Z,11.55
2019-02-25T02:55:14.153Z,12.55
2019-02-25T02:55:47.647Z,11.18
2019-02-25T02:56:21.127Z,11.90
2019-02-25T02:56:54.621Z,12.53
2019-02-25T02:57:28.116Z,12.68
2019-02-25T02:58:01.671Z,12.25
2019-02-25T02:58:35.208Z,12.82
2019-02-25T02:59:08.880Z,11.75
2019-02-25T02:59:42.463Z,12.18
2019-02-25T03:00:16.787Z,12.23
2019-02-25T03:00:50.273Z,11.55
2019-02-25T03:01:23.789Z,12.60
2019-02-25T03:01:57.269Z,12.55
2019-02-25T03:02:31.114Z,11.12
2019-02-25T03:03:04.844Z,12.53
2019-02-25T03:03:38.775Z,11.97
2019-02-25T03:04:12.254Z,12.45
2019-02-25T03:04:45.691Z,11.95
2019-02-25T03:05:19.365Z,11.57
2019-02-25T03:05:52.891Z,12.63
2019-02-25T03:06:26.427Z,13.08
2019-02-25T03:06:59.944Z,13.62
2019-02-25T03:07:33.473Z,12.95
2019-02-25T03:08:06.975Z,13.55
2019-02-25T03:08:40.461Z,11.90
2019-02-25T03:09:13.945Z,11.48
2019-02-25T03:09:48.318Z,12.07
2019-02-25T03:10:21.800Z,12.37
2019-02-25T03:10:55.307Z,13.90
2019-02-25T03:11:28.999Z,12.93
2019-02-25T03:12:02.714Z,12.60
2019-02-25T03:12:37.417Z,11.83
2019-02-25T03:13:11.229Z,12.25
2019-02-25T03:13:44.719Z,12.43
2019-02-25T03:14:18.219Z,12.95
2019-02-25T03:14:51.775Z,11.63
2019-02-25T03:15:25.318Z,12.45
2019-02-25T03:15:58.821Z,13.08
2019-02-25T03:16:32.300Z,12.73
2019-02-25T03:17:05.813Z,12.30
2019-02-25T03:17:40.321Z,12.03
2019-02-25T03:18:13.817Z,11.10
2019-02-25T03:18:47.296Z,12.63
2019-02-25T03:19:20.823Z,12.10
2019-02-25T03:19:54.322Z,11.60
2019-02-25T03:20:27.829Z,11.80
2019-02-25T03:21:01.303Z,11.75
2019-02-25T03:21:34.720Z,11.73
2019-02-25T03:22:08.213Z,12.88
2019-02-25T03:22:42.096Z,12.60
2019-02-25T03:23:15.578Z,12.33
2019-02-25T03:23:49.074Z,12.70
2019-02-25T03:24:22.559Z,11.73
2019-02-25T03:24:56.099Z,12.43
2019-02-25T03:25:29.565Z,12.93
2019-02-25T03:26:03.131Z,12.78
2019-02-25T03:26:36.798Z,12.23
2019-02-25T03:27:10.321Z,12.65
2019-02-25T03:27:43.850Z,12.80
2019-02-25T03:28:17.334Z,12.55
2019-02-25T03:28:50.808Z,12.68
2019-02-25T03:29:24.317Z,12.85
2019-02-25T03:29:57.803Z,13.15
2019-02-25T03:30:31.294Z,12.80
2019-02-25T03:31:04.766Z,12.98
2019-02-25T03:31:38.266Z,12.03
2019-02-25T03:32:11.764Z,13.30
2019-02-25T03:32:45.277Z,13.48
2019-02-25T03:33:18.849Z,12.68
2019-02-25T03:33:52.529Z,12.43
2019-02-25T03:34:26.094Z,12.37
2019-02-25T03:34:59.656Z,12.35
2019-02-25T03:35:33.165Z,12.53
2019-02-25T03:36:06.640Z,13.18
2019-02-25T03:36:40.125Z,12.95
2019-02-25T03:37:13.625Z,12.82
2019-02-25T03:37:47.105Z,12.45
2019-02-25T03:38:20.511Z,12.82
2019-02-25T03:38:54.336Z,12.47
2019-02-25T03:39:27.772Z,13.10
2019-02-25T03:40:01.341Z,12.35
2019-02-25T03:40:34.835Z,12.63
2019-02-25T03:41:08.320Z,13.30
2019-02-25T03:41:41.822Z,12.53
2019-02-25T03:42:15.394Z,12.63
2019-02-25T03:42:49.201Z,13.35
2019-02-25T03:43:22.774Z,12.60
2019-02-25T03:43:56.270Z,11.40
2019-02-25T03:44:29.844Z,12.82
2019-02-25T03:45:03.461Z,12.82
2019-02-25T03:45:36.998Z,11.97
2019-02-25T03:46:10.518Z,12.03
2019-02-25T03:46:43.990Z,12.75
2019-02-25T03:47:17.474Z,11.90
2019-02-25T03:47:51.021Z,13.00
2019-02-25T03:48:24.568Z,12.15
2019-02-25T03:48:58.087Z,12.80
2019-02-25T03:49:31.587Z,12.20
2019-02-25T03:50:05.189Z,13.58
2019-02-25T03:50:38.669Z,12.00
2019-02-25T03:51:12.181Z,12.95
2019-02-25T03:51:45.662Z,12.98
2019-02-25T03:52:19.060Z,13.13
2019-02-25T03:52:53.333Z,13.13
2019-02-25T03:53:26.901Z,12.03
2019-02-25T03:54:00.378Z,12.95
2019-02-25T03:54:33.950Z,11.43
2019-02-25T03:55:08.458Z,14.75
2019-02-25T03:55:42.085Z,13.05
2019-02-25T03:56:15.609Z,12.75
2019-02-25T03:56:49.075Z,12.50
2019-02-25T03:57:22.550Z,11.20
2019-02-25T03:57:56.088Z,13.18
2019-02-25T03:58:29.573Z,12.30
2019-02-25T03:59:03.067Z,12.70
2019-02-25T03:59:36.572Z,12.30
2019-02-25T04:00:19.871Z,13.62
2019-02-25T04:00:53.354Z,12.00
2019-02-25T04:01:26.882Z,11.15
2019-02-25T04:02:00.361Z,12.78
2019-02-25T04:02:33.849Z,11.97
2019-02-25T04:03:08.222Z,11.75
2019-02-25T04:03:41.782Z,12.45
2019-02-25T04:04:15.327Z,12.63
2019-02-25T04:04:49.334Z,13.05
2019-02-25T04:05:22.838Z,11.78
2019-02-25T04:05:56.320Z,11.83
2019-02-25T04:06:29.869Z,12.25
2019-02-25T04:07:03.361Z,12.30
2019-02-25T04:07:36.873Z,13.30
2019-02-25T04:08:10.607Z,13.28
2019-02-25T04:08:44.118Z,13.00
2019-02-25T04:09:17.716Z,12.60
2019-02-25T04:09:51.133Z,12.58
2019-02-25T04:10:24.719Z,12.00
2019-02-25T04:10:58.199Z,11.60
2019-02-25T04:11:31.673Z,12.07
2019-02-25T04:12:05.150Z,13.00
2019-02-25T04:12:39.253Z,13.28
2019-02-25T04:13:12.694Z,13.03
2019-02-25T04:13:46.249Z,12.23
2019-02-25T04:14:19.712Z,12.00
2019-02-25T04:14:53.192Z,12.40
2019-02-25T04:15:33.537Z,11.50
2019-02-25T04:16:08.585Z,11.55
2019-02-25T04:16:42.253Z,12.20
2019-02-25T04:17:15.740Z,13.20
2019-02-25T04:17:49.237Z,12.30
2019-02-25T04:18:22.990Z,11.75
2019-02-25T04:18:56.452Z,11.33
2019-02-25T04:19:29.926Z,13.05
2019-02-25T04:20:03.424Z,12.78
2019-02-25T04:20:37.535Z,11.30
2019-02-25T04:21:11.015Z,11.88
2019-02-25T04:21:44.515Z,11.50
2019-02-25T04:22:18.024Z,12.10
2019-02-25T04:22:51.527Z,11.80
2019-02-25T04:23:25.236Z,12.13
2019-02-25T04:23:58.813Z,13.58
2019-02-25T04:24:32.304Z,12.15
2019-02-25T04:25:05.813Z,12.18
2019-02-25T04:25:39.310Z,12.15
2019-02-25T04:26:12.793Z,12.68
2019-02-25T04:26:46.300Z,12.10
2019-02-25T04:27:19.781Z,11.88
2019-02-25T04:27:53.293Z,12.25
2019-02-25T04:28:26.828Z,12.07
2019-02-25T04:29:00.322Z,12.65
2019-02-25T04:29:33.740Z,12.05
2019-02-25T04:30:08.407Z,11.28
2019-02-25T04:30:41.983Z,12.70
2019-02-25T04:31:15.505Z,12.85
2019-02-25T04:31:49.012Z,12.05
2019-02-25T04:32:22.634Z,11.48
2019-02-25T04:32:56.285Z,13.50
2019-02-25T04:33:29.891Z,12.25
2019-02-25T04:34:03.394Z,12.53
2019-02-25T04:34:56.029Z,13.13
2019-02-25T04:35:29.545Z,11.43
2019-02-25T04:36:03.045Z,12.40
2019-02-25T04:36:36.531Z,13.68
2019-02-25T04:37:10.037Z,14.10
2019-02-25T04:37:43.642Z,13.38
2019-02-25T04:38:17.143Z,12.75
2019-02-25T04:38:50.662Z,12.80
2019-02-25T04:39:24.926Z,12.78
2019-02-25T04:39:58.427Z,13.03
2019-02-25T04:40:31.988Z,13.08
2019-02-25T04:41:05.482Z,13.20
2019-02-25T04:41:38.972Z,12.78
2019-02-25T04:42:12.457Z,13.93
2019-02-25T04:42:45.972Z,13.62
2019-02-25T04:43:20.153Z,12.80
2019-02-25T04:43:53.667Z,13.55
2019-02-25T04:44:27.126Z,13.30
2019-02-25T04:45:00.664Z,13.62
2019-02-25T04:45:34.251Z,13.22
2019-02-25T04:46:07.744Z,13.30
2019-02-25T04:46:41.302Z,12.98
2019-02-25T04:47:14.876Z,11.88
2019-02-25T04:47:48.400Z,12.00
2019-02-25T04:48:21.935Z,12.20
2019-02-25T04:48:55.488Z,12.78
2019-02-25T04:49:28.990Z,11.65
2019-02-25T04:50:02.504Z,13.15
2019-02-25T04:50:35.923Z,12.90
2019-02-25T04:51:09.561Z,12.95
2019-02-25T04:51:43.117Z,12.00
2019-02-25T04:52:16.608Z,13.85
2019-02-25T04:52:50.089Z,12.75
2019-02-25T04:53:23.615Z,12.70
2019-02-25T04:53:57.126Z,13.68
2019-02-25T04:54:30.641Z,12.33
2019-02-25T04:55:04.492Z,12.75
2019-02-25T04:55:38.028Z,13.40
2019-02-25T04:56:11.467Z,12.70
2019-02-25T04:56:44.977Z,12.18
2019-02-25T04:57:18.439Z,12.05
2019-02-25T04:57:52.054Z,12.65
2019-02-25T04:58:25.764Z,14.45
2019-02-25T04:58:59.346Z,12.55
2019-02-25T04:59:32.826Z,12.20
2019-02-25T05:00:07.426Z,13.43
2019-02-25T05:00:40.923Z,13.20
2019-02-25T05:01:14.404Z,13.45
2019-02-25T05:01:47.987Z,13.90
2019-02-25T05:02:21.448Z,13.53
2019-02-25T05:02:54.977Z,13.18
2019-02-25T05:03:28.556Z,12.45
2019-02-25T05:04:02.111Z,12.23
2019-02-25T05:04:35.545Z,12.95
2019-02-25T05:05:09.071Z,11.95
2019-02-25T05:05:42.505Z,12.80
2019-02-25T05:06:16.045Z,12.55
2019-02-25T05:06:49.499Z,12.58
2019-02-25T05:07:22.985Z,13.88
2019-02-25T05:07:56.571Z,13.08
2019-02-25T05:08:30.104Z,13.13
2019-02-25T05:09:05.435Z,12.35
2019-02-25T05:09:38.997Z,12.45
2019-02-25T05:10:13.183Z,12.43
2019-02-25T05:10:46.686Z,13.50
2019-02-25T05:11:21.917Z,12.35
2019-02-25T05:11:55.446Z,12.88
2019-02-25T05:12:29.051Z,13.08
2019-02-25T05:13:04.236Z,12.45
2019-02-25T05:13:37.771Z,13.38
2019-02-25T05:14:11.204Z,12.55
2019-02-25T05:14:44.715Z,12.47
2019-02-25T05:15:19.537Z,12.03
2019-02-25T05:15:53.092Z,12.75
2019-02-25T05:16:26.608Z,11.63
2019-02-25T05:17:00.108Z,11.75
2019-02-25T05:17:33.687Z,12.20
2019-02-25T05:18:07.256Z,11.40
2019-02-25T05:18:41.420Z,12.47
2019-02-25T05:19:14.857Z,12.00
2019-02-25T05:19:48.328Z,12.82
2019-02-25T05:20:21.801Z,12.80
2019-02-25T05:20:55.299Z,12.93
2019-02-25T05:21:28.722Z,13.10
2019-02-25T05:22:04.550Z,12.78
2019-02-25T05:22:38.056Z,12.90
2019-02-25T05:23:11.543Z,12.18
2019-02-25T05:23:45.072Z,12.13
2019-02-25T05:24:18.501Z,13.10
2019-02-25T05:24:52.007Z,12.70
2019-02-25T05:25:25.480Z,12.88
2019-02-25T05:25:58.992Z,13.05
2019-02-25T05:26:32.473Z,12.58
2019-02-25T05:27:06.005Z,13.10
2019-02-25T05:27:39.523Z,13.00
2019-02-25T05:28:13.048Z,12.47
2019-02-25T05:28:46.529Z,12.80
2019-02-25T05:29:20.152Z,12.55
2019-02-25T05:29:53.644Z,12.85
2019-02-25T05:30:27.227Z,13.45
2019-02-25T05:31:00.709Z,13.32
2019-02-25T05:31:34.205Z,13.40
2019-02-25T05:32:07.680Z,12.05
2019-02-25T05:32:41.173Z,12.65
2019-02-25T05:33:14.658Z,12.98
2019-02-25T05:33:48.167Z,13.20
2019-02-25T05:34:21.742Z,12.85
2019-02-25T05:34:55.180Z,13.15
2019-02-25T05:35:28.678Z,14.07
2019-02-25T05:36:02.171Z,13.25
2019-02-25T05:36:36.226Z,13.98
2019-02-25T05:37:09.951Z,13.32
2019-02-25T05:37:43.654Z,12.60
2019-02-25T05:38:17.233Z,13.68
2019-02-25T05:39:09.958Z,13.40
2019-02-25T05:39:44.511Z,12.63
2019-02-25T05:40:18.252Z,13.22
2019-02-25T05:40:51.745Z,12.33
2019-02-25T05:41:25.355Z,12.30
2019-02-25T05:41:58.852Z,12.98
2019-02-25T05:42:32.409Z,12.90
2019-02-25T05:43:05.916Z,13.25
2019-02-25T05:43:39.410Z,12.90
2019-02-25T05:44:13.325Z,13.50
2019-02-25T05:44:47.169Z,13.50
2019-02-25T05:45:20.704Z,13.35
2019-02-25T05:45:54.247Z,13.88
2019-02-25T05:46:27.824Z,14.80
2019-02-25T05:47:01.381Z,12.93
2019-02-25T05:47:34.910Z,13.10
2019-02-25T05:48:08.424Z,13.90
2019-02-25T05:48:42.039Z,13.95
2019-02-25T05:49:15.582Z,13.55
2019-02-25T05:49:49.179Z,12.33
2019-02-25T05:50:25.319Z,14.23
2019-02-25T05:50:58.840Z,13.93
2019-02-25T05:51:32.348Z,13.68
2019-02-25T05:52:05.938Z,13.65
2019-02-25T05:52:58.598Z,14.10
2019-02-25T05:53:32.610Z,13.00
2019-02-25T05:54:06.110Z,13.08
2019-02-25T05:54:39.731Z,12.70
2019-02-25T05:55:13.313Z,12.60
2019-02-25T05:55:47.128Z,13.43
2019-02-25T05:56:20.838Z,13.62
2019-02-25T05:56:54.247Z,13.95
2019-02-25T05:57:27.715Z,13.43
2019-02-25T05:58:01.185Z,13.45
2019-02-25T05:58:34.681Z,14.38
2019-02-25T05:59:08.175Z,13.55
2019-02-25T05:59:42.621Z,13.95
2019-02-25T06:00:19.091Z,15.10
2019-02-25T06:00:52.902Z,14.10
2019-02-25T06:01:26.401Z,14.50
2019-02-25T06:02:00.077Z,14.00
2019-02-25T06:02:33.685Z,13.93
2019-02-25T06:03:07.233Z,14.18
2019-02-25T06:03:40.979Z,15.60
2019-02-25T06:04:14.499Z,13.65
2019-02-25T06:04:48.092Z,14.20
2019-02-25T06:05:21.734Z,15.00
2019-02-25T06:05:55.449Z,14.38
2019-02-25T06:06:29.000Z,14.87
2019-02-25T06:07:02.563Z,14.10
2019-02-25T06:07:36.085Z,14.95
2019-02-25T06:08:09.542Z,13.83
2019-02-25T06:08:43.165Z,14.25
2019-02-25T06:09:16.846Z,13.60
2019-02-25T06:09:50.448Z,14.43
2019-02-25T06:10:23.932Z,14.38
2019-02-25T06:10:57.438Z,14.18
2019-02-25T06:11:32.021Z,14.45
2019-02-25T06:12:24.641Z,15.00
2019-02-25T06:12:58.321Z,13.85
2019-02-25T06:13:31.766Z,14.85
2019-02-25T06:14:05.295Z,14.40
2019-02-25T06:14:38.836Z,15.18
2019-02-25T06:15:13.414Z,14.90
2019-02-25T06:15:47.171Z,14.40
2019-02-25T06:16:20.693Z,13.90
2019-02-25T06:16:54.278Z,15.18
2019-02-25T06:17:27.765Z,13.93
2019-02-25T06:18:01.251Z,14.90
2019-02-25T06:18:34.846Z,16.32
2019-02-25T06:19:08.358Z,16.35
2019-02-25T06:19:42.103Z,16.32
2019-02-25T06:20:15.866Z,14.95
2019-02-25T06:20:49.419Z,16.85
2019-02-25T06:21:23.303Z,15.32
2019-02-25T06:21:57.294Z,14.40
2019-02-25T06:22:30.810Z,15.13
2019-02-25T06:23:04.340Z,14.55
2019-02-25T06:23:37.937Z,14.90
2019-02-25T06:24:11.606Z,14.73
2019-02-25T06:24:47.412Z,15.48
2019-02-25T06:25:22.619Z,15.00
2019-02-25T06:25:56.155Z,15.15
2019-02-25T06:26:29.700Z,15.85
2019-02-25T06:27:03.298Z,14.40
2019-02-25T06:27:56.170Z,15.25
2019-02-25T06:28:29.734Z,15.35
2019-02-25T06:29:03.252Z,15.10
2019-02-25T06:29:36.887Z,14.45
2019-02-25T06:30:11.872Z,15.25
2019-02-25T06:30:45.369Z,14.47
2019-02-25T06:31:18.884Z,14.73
2019-02-25T06:31:52.321Z,15.80
2019-02-25T06:32:25.874Z,15.13
2019-02-25T06:32:59.370Z,15.05
2019-02-25T06:33:33.044Z,14.28
2019-02-25T06:34:06.564Z,16.17
2019-02-25T06:34:40.086Z,14.38
2019-02-25T06:35:13.861Z,14.30
2019-02-25T06:35:47.379Z,15.32
2019-02-25T06:36:20.872Z,15.60
2019-02-25T06:36:54.485Z,14.90
2019-02-25T06:37:27.972Z,16.82
2019-02-25T06:38:01.489Z,14.65
2019-02-25T06:38:34.998Z,15.10
2019-02-25T06:39:08.959Z,15.28
2019-02-25T06:39:42.469Z,14.55
2019-02-25T06:40:17.503Z,15.13
2019-02-25T06:40:51.072Z,13.80
2019-02-25T06:41:24.549Z,15.20
2019-02-25T06:41:58.102Z,14.93
2019-02-25T06:42:31.611Z,15.63
2019-02-25T06:43:05.171Z,14.45
2019-02-25T06:43:38.622Z,14.63
2019-02-25T06:44:12.106Z,13.55
2019-02-25T06:45:04.825Z,13.28
2019-02-25T06:45:38.358Z,13.20
2019-02-25T06:46:12.018Z,14.25
2019-02-25T06:46:45.566Z,13.55
2019-02-25T06:47:19.035Z,14.78
2019-02-25T06:47:52.706Z,14.23
2019-02-25T06:48:26.310Z,14.23
2019-02-25T06:48:59.895Z,15.40
2019-02-25T06:49:33.380Z,14.23
2019-02-25T06:50:08.177Z,15.43
2019-02-25T06:50:41.712Z,14.28
2019-02-25T06:51:15.329Z,16.60
2019-02-25T06:51:48.826Z,15.83
2019-02-25T06:52:24.099Z,15.20
2019-02-25T06:52:57.668Z,14.85
2019-02-25T06:53:31.103Z,15.03
2019-02-25T06:54:04.618Z,15.43
2019-02-25T06:54:38.156Z,14.33
2019-02-25T06:55:13.607Z,14.70
2019-02-25T06:55:47.087Z,15.53
2019-02-25T06:56:20.644Z,14.95
2019-02-25T06:56:54.149Z,14.55
2019-02-25T06:57:27.684Z,14.53
2019-02-25T06:58:01.450Z,14.55
2019-02-25T06:58:35.026Z,15.70
2019-02-25T06:59:08.675Z,15.43
2019-02-25T06:59:42.183Z,16.42
2019-02-25T07:00:16.847Z,16.12
2019-02-25T07:00:50.460Z,15.23
2019-02-25T07:01:24.044Z,15.55
2019-02-25T07:01:58.116Z,15.58
2019-02-25T07:02:31.676Z,15.43
2019-02-25T07:03:05.251Z,14.65
2019-02-25T07:03:38.846Z,16.15
2019-02-25T07:04:23.743Z,16.32
2019-02-25T07:05:25.434Z,14.45
2019-02-25T07:06:21.574Z,13.98
2019-02-25T07:07:22.969Z,13.83
2019-02-25T07:07:59.446Z,14.20
2019-02-25T07:08:50.450Z,13.83
2019-02-25T07:09:41.825Z,14.53
2019-02-25T07:10:33.666Z,14.60
2019-02-25T07:11:16.427Z,15.90
2019-02-25T07:12:09.083Z,16.48
2019-02-25T07:12:50.233Z,15.43
2019-02-25T07:13:44.196Z,15.48
2019-02-25T07:14:47.358Z,16.00
2019-02-25T07:15:48.962Z,14.90
2019-02-25T07:16:54.531Z,16.20
2019-02-25T07:17:41.670Z,16.95
2019-02-25T07:18:30.209Z,15.18
2019-02-25T07:19:22.864Z,15.53
2019-02-25T07:20:05.569Z,13.88
2019-02-25T07:21:07.251Z,15.85
2019-02-25T07:22:09.127Z,14.53
2019-02-25T07:22:56.633Z,15.60
2019-02-25T07:23:51.445Z,14.70
2019-02-25T07:24:52.445Z,15.55
2019-02-25T07:25:38.565Z,15.32
2019-02-25T07:26:37.494Z,14.65
2019-02-25T07:27:18.920Z,15.50
2019-02-25T07:28:29.619Z,14.55
2019-02-25T07:29:21.154Z,14.68